Aroma, Indiana
Current Conditions -  °F | °C
As of 4:55 PM on Friday 31 Oct 2014 (Local Time) from KTYQ Reporting Station
Light Rain Light Rain  
Wind Chill: 26°   Ceiling: 900
Heat Index: 36°   Visibility: 4mi
Dew Point: 32°   Wind: 18mph
Humidity: 86%   Direction: 320°NW
Pressure: 29.99"   Gusts: 26mph
Location:  40.1832°N, 85.9359°W
Report Text: KTYQ 312055Z AUTO 32016G23KT 4SM -RA BKN009 OVC012 02/00 A2999 RMK AO2 60001 T00220001
Loading
Personal Weather Stations






























Interactive Weather Map New forecast layout! Learn more

10-Day Weather Forecast

Advertisements
Track Severe Weather on mobile